Time;durP1;ratioP1;P1;durP2;ratioP2;P2;SDS_P1;SDS_P2;PMS_P1;PMS_P2;Temp;Humidity;BMP_temperature;BMP_pressure;BME280_temperature;BME280_humidity;BME280_pressure;Samples;Min_cycle;Max_cycle;Signal;HPM_P1;HPM_P2
2023/06/13 00:00:07;;;;;;;13.35;3.50;;;;;;;;;;5019507;28;20060;-65
2023/06/13 00:02:33;;;;;;;11.77;3.45;;;;;;;;;;5021957;28;20549;-64
2023/06/13 00:05:01;;;;;;;11.25;3.60;;;;;;;;;;5020335;28;20543;-64
2023/06/13 00:07:30;;;;;;;12.63;3.67;;;;;;;;;;5021359;28;20037;-64
2023/06/13 00:09:57;;;;;;;9.43;3.45;;;;;;;;;;5016170;28;20033;-64
2023/06/13 00:12:25;;;;;;;10.82;3.17;;;;;;;;;;5009820;28;20134;-65
2023/06/13 00:14:52;;;;;;;11.32;2.95;;;;;;;;;;5022966;28;20118;-66
2023/06/13 00:17:22;;;;;;;13.93;3.40;;;;;;;;;;5017089;28;20036;-64
2023/06/13 00:19:48;;;;;;;14.65;3.83;;;;;;;;;;5012656;28;20041;-64
2023/06/13 00:22:14;;;;;;;11.52;3.10;;;;;;;;;;5006001;28;20976;-65
2023/06/13 00:24:44;;;;;;;11.93;3.45;;;;;;;;;;5023981;28;20029;-65
2023/06/13 00:27:10;;;;;;;15.30;3.45;;;;;;;;;;5021028;28;20119;-64
2023/06/13 00:29:37;;;;;;;11.23;3.08;;;;;;;;;;5023839;28;20025;-64
2023/06/13 00:32:03;;;;;;;11.27;3.38;;;;;;;;;;5019858;28;20033;-64
2023/06/13 00:34:29;;;;;;;11.32;4.20;;;;;;;;;;5021196;28;20372;-64
2023/06/13 00:36:55;;;;;;;10.73;3.30;;;;;;;;;;5022549;28;20222;-64
2023/06/13 00:39:22;;;;;;;14.35;4.07;;;;;;;;;;5024637;28;20383;-65
2023/06/13 00:41:48;;;;;;;13.40;3.45;;;;;;;;;;5024549;28;20025;-65
2023/06/13 00:44:14;;;;;;;11.25;3.35;;;;;;;;;;5020584;28;20040;-64
2023/06/13 00:46:42;;;;;;;9.80;3.05;;;;;;;;;;5011203;28;20033;-64
2023/06/13 00:49:09;;;;;;;12.82;3.70;;;;;;;;;;5021459;28;20397;-63
2023/06/13 00:51:40;;;;;;;11.43;3.38;;;;;;;;;;5024474;28;20116;-64
2023/06/13 00:54:06;;;;;;;11.85;3.30;;;;;;;;;;5019929;28;20515;-65
2023/06/13 00:56:33;;;;;;;14.23;3.70;;;;;;;;;;5020265;28;20107;-65
2023/06/13 00:59:00;;;;;;;12.73;2.92;;;;;;;;;;5018770;28;20603;-65
2023/06/13 01:01:27;;;;;;;10.65;3.03;;;;;;;;;;5022015;28;20039;-65
2023/06/13 01:03:55;;;;;;;11.13;3.30;;;;;;;;;;5005553;28;20041;-65
2023/06/13 01:06:24;;;;;;;12.93;3.10;;;;;;;;;;5023568;28;20116;-65
2023/06/13 01:08:51;;;;;;;13.23;3.35;;;;;;;;;;5005266;28;20032;-65
2023/06/13 01:11:20;;;;;;;12.55;3.45;;;;;;;;;;5005392;28;20031;-64
2023/06/13 01:13:50;;;;;;;14.82;3.38;;;;;;;;;;5023979;28;20037;-64
2023/06/13 01:16:16;;;;;;;12.90;3.08;;;;;;;;;;5020917;28;20140;-64
2023/06/13 01:18:44;;;;;;;11.63;3.33;;;;;;;;;;5008810;28;20040;-65
2023/06/13 01:21:12;;;;;;;15.68;3.53;;;;;;;;;;5021649;28;20033;-64
2023/06/13 01:23:39;;;;;;;10.10;3.20;;;;;;;;;;5003661;28;20053;-64
2023/06/13 01:26:15;;;;;;;13.07;3.63;;;;;;;;;;5022146;28;20032;-64
2023/06/13 01:28:43;;;;;;;11.88;4.40;;;;;;;;;;5022142;28;20056;-63
2023/06/13 01:31:11;;;;;;;10.73;3.28;;;;;;;;;;5004751;28;20037;-64
2023/06/13 01:33:37;;;;;;;13.60;3.90;;;;;;;;;;5024044;28;20379;-63
2023/06/13 01:36:04;;;;;;;12.25;3.70;;;;;;;;;;5020267;28;20419;-65
2023/06/13 01:38:31;;;;;;;12.50;3.80;;;;;;;;;;5023724;28;20033;-65
2023/06/13 01:40:58;;;;;;;11.70;3.28;;;;;;;;;;5016707;28;20255;-65
2023/06/13 01:43:24;;;;;;;16.58;3.83;;;;;;;;;;5023712;28;20467;-65
2023/06/13 01:45:54;;;;;;;12.20;3.10;;;;;;;;;;5024076;28;20033;-65
2023/06/13 01:48:30;;;;;;;11.57;3.58;;;;;;;;;;5003827;28;20442;-64
2023/06/13 01:50:56;;;;;;;;;;;;;;;;;;5020141;28;20482;-65
2023/06/13 01:53:30;;;;;;;10.97;3.77;;;;;;;;;;5024180;28;19939;-64
2023/06/13 01:55:58;;;;;;;11.20;3.15;;;;;;;;;;5020093;28;20502;-64
2023/06/13 01:58:32;;;;;;;12.00;3.22;;;;;;;;;;5021576;28;20035;-63
2023/06/13 02:01:00;;;;;;;10.52;2.72;;;;;;;;;;5004849;28;20033;-65
2023/06/13 02:03:27;;;;;;;10.18;3.33;;;;;;;;;;5023453;28;20029;-65
2023/06/13 02:05:53;;;;;;;12.00;2.97;;;;;;;;;;5023556;28;20038;-65
2023/06/13 02:08:19;;;;;;;10.45;3.70;;;;;;;;;;5020703;28;20428;-64
2023/06/13 02:10:46;;;;;;;9.50;2.90;;;;;;;;;;5026174;28;20601;-64
2023/06/13 02:13:12;;;;;;;10.00;3.28;;;;;;;;;;5016131;28;20579;-64
2023/06/13 02:15:38;;;;;;;9.45;2.83;;;;;;;;;;5023491;28;20016;-66
2023/06/13 02:18:04;;;;;;;11.70;3.22;;;;;;;;;;5020360;28;20533;-64
2023/06/13 02:20:30;;;;;;;11.18;3.00;;;;;;;;;;5022713;28;20029;-64
2023/06/13 02:22:57;;;;;;;9.20;2.80;;;;;;;;;;5020033;28;20028;-64
2023/06/13 02:25:23;;;;;;;9.50;2.92;;;;;;;;;;5022539;28;20021;-63
2023/06/13 02:27:49;;;;;;;8.55;2.85;;;;;;;;;;5022872;28;20037;-65
2023/06/13 02:30:15;;;;;;;10.40;2.70;;;;;;;;;;5020969;28;20033;-64
2023/06/13 02:32:42;;;;;;;8.40;2.72;;;;;;;;;;5021235;28;20336;-64
2023/06/13 02:35:09;;;;;;;9.05;2.65;;;;;;;;;;5020509;28;20025;-64
2023/06/13 02:37:35;;;;;;;9.30;2.47;;;;;;;;;;5009875;28;20037;-64
2023/06/13 02:40:05;;;;;;;9.10;2.40;;;;;;;;;;5017490;28;20466;-64
2023/06/13 02:42:31;;;;;;;9.05;2.58;;;;;;;;;;5023042;28;20029;-64
2023/06/13 02:44:57;;;;;;;9.20;2.70;;;;;;;;;;5019779;28;20404;-64
2023/06/13 02:47:24;;;;;;;6.97;2.20;;;;;;;;;;5003201;28;20028;-64
2023/06/13 02:49:50;;;;;;;7.60;2.22;;;;;;;;;;5022598;28;20028;-64
2023/06/13 02:52:16;;;;;;;8.55;2.45;;;;;;;;;;5019340;28;20020;-67
2023/06/13 02:54:42;;;;;;;6.78;2.05;;;;;;;;;;5007925;28;20462;-64
2023/06/13 02:57:11;;;;;;;8.52;2.80;;;;;;;;;;5019977;28;20142;-64
2023/06/13 02:59:37;;;;;;;9.00;2.45;;;;;;;;;;5006473;28;20402;-63
2023/06/13 03:02:03;;;;;;;10.40;2.22;;;;;;;;;;5019320;28;20079;-64
2023/06/13 03:04:31;;;;;;;9.25;2.45;;;;;;;;;;5008415;28;20037;-63
2023/06/13 03:06:57;;;;;;;8.70;2.45;;;;;;;;;;5017695;28;20566;-64
2023/06/13 03:09:24;;;;;;;9.35;2.25;;;;;;;;;;5004387;28;20025;-64
2023/06/13 03:11:50;;;;;;;8.82;2.38;;;;;;;;;;5022610;28;20094;-64
2023/06/13 03:14:16;;;;;;;8.13;2.17;;;;;;;;;;5019962;28;20020;-63
2023/06/13 03:16:43;;;;;;;7.13;2.15;;;;;;;;;;5022453;28;20017;-63
2023/06/13 03:19:09;;;;;;;8.98;2.63;;;;;;;;;;5018665;28;20064;-64
2023/06/13 03:21:35;;;;;;;10.30;3.10;;;;;;;;;;5010277;28;20526;-64
2023/06/13 03:24:01;;;;;;;10.85;2.63;;;;;;;;;;5019092;28;20043;-64
2023/06/13 03:26:28;;;;;;;10.95;3.17;;;;;;;;;;5019731;28;20021;-64
2023/06/13 03:28:54;;;;;;;11.93;2.80;;;;;;;;;;5005384;28;20103;-65
2023/06/13 03:31:20;;;;;;;10.23;3.15;;;;;;;;;;5022156;28;20029;-65
2023/06/13 03:33:47;;;;;;;10.20;3.17;;;;;;;;;;5023307;28;20040;-65
2023/06/13 03:36:13;;;;;;;8.82;2.80;;;;;;;;;;5002896;28;20751;-65
2023/06/13 03:38:40;;;;;;;8.02;2.42;;;;;;;;;;5020766;28;20168;-65
2023/06/13 03:41:06;;;;;;;9.98;2.70;;;;;;;;;;5019064;28;20162;-65
2023/06/13 03:43:32;;;;;;;10.15;3.00;;;;;;;;;;5022734;28;20033;-65
2023/06/13 03:46:00;;;;;;;9.27;2.47;;;;;;;;;;5022021;28;20096;-65
2023/06/13 03:48:26;;;;;;;9.60;2.80;;;;;;;;;;5023289;28;20463;-65
2023/06/13 03:50:52;;;;;;;7.63;2.50;;;;;;;;;;5024999;28;20036;-65
2023/06/13 03:53:19;;;;;;;8.00;2.60;;;;;;;;;;5010200;28;20415;-65
2023/06/13 03:55:45;;;;;;;9.05;2.38;;;;;;;;;;5024098;28;20265;-65
2023/06/13 03:58:12;;;;;;;7.07;2.33;;;;;;;;;;5021393;28;20036;-64
2023/06/13 04:00:42;;;;;;;9.57;2.63;;;;;;;;;;5026001;28;20017;-64
2023/06/13 04:03:09;;;;;;;7.53;2.22;;;;;;;;;;5002018;28;20092;-64
2023/06/13 04:05:35;;;;;;;7.03;2.30;;;;;;;;;;5024898;28;20021;-64
2023/06/13 04:08:02;;;;;;;9.30;2.40;;;;;;;;;;5011022;28;20037;-64
2023/06/13 04:10:28;;;;;;;9.70;2.55;;;;;;;;;;5025863;28;20644;-64
2023/06/13 04:12:54;;;;;;;8.68;2.50;;;;;;;;;;5020160;28;20033;-65
2023/06/13 04:15:21;;;;;;;9.02;2.67;;;;;;;;;;5023688;28;20320;-66
2023/06/13 04:17:48;;;;;;;9.27;2.50;;;;;;;;;;5024857;28;20071;-64
2023/06/13 04:20:14;;;;;;;10.88;2.60;;;;;;;;;;5021146;28;20311;-64
2023/06/13 04:22:45;;;;;;;8.77;2.30;;;;;;;;;;5023535;28;20039;-64
2023/06/13 04:25:11;;;;;;;7.50;2.30;;;;;;;;;;5017424;28;20029;-64
2023/06/13 04:27:38;;;;;;;9.57;2.67;;;;;;;;;;5021903;28;20452;-65
2023/06/13 04:30:05;;;;;;;9.50;2.58;;;;;;;;;;5024116;28;20693;-65
2023/06/13 04:32:34;;;;;;;7.63;2.42;;;;;;;;;;5007917;28;20064;-65
2023/06/13 04:35:00;;;;;;;8.13;2.42;;;;;;;;;;5000707;28;20029;-65
2023/06/13 04:37:26;;;;;;;11.18;2.90;;;;;;;;;;5023539;28;20492;-65
2023/06/13 04:39:53;;;;;;;9.90;2.53;;;;;;;;;;5022982;28;20040;-65
2023/06/13 04:42:29;;;;;;;7.28;2.20;;;;;;;;;;5022697;28;20358;-64
2023/06/13 04:44:56;;;;;;;7.88;2.40;;;;;;;;;;5002705;28;20037;-64
2023/06/13 04:47:23;;;;;;;12.20;2.45;;;;;;;;;;5022395;28;20116;-64
2023/06/13 04:49:58;;;;;;;7.88;2.42;;;;;;;;;;5008068;28;20037;-64
2023/06/13 04:52:33;;;;;;;7.95;2.40;;;;;;;;;;5002977;28;20017;-64
2023/06/13 04:55:00;;;;;;;9.97;2.43;;;;;;;;;;5020227;28;20021;-64
2023/06/13 04:57:27;;;;;;;9.85;2.63;;;;;;;;;;5020434;28;20527;-64
2023/06/13 04:59:53;;;;;;;9.45;2.45;;;;;;;;;;5024115;28;20127;-64
2023/06/13 05:02:20;;;;;;;9.02;2.50;;;;;;;;;;5025658;28;20079;-65
2023/06/13 05:04:47;;;;;;;7.05;2.25;;;;;;;;;;5007604;28;20021;-64
2023/06/13 05:07:15;;;;;;;8.88;2.38;;;;;;;;;;5019477;28;21852;-64
2023/06/13 05:09:42;;;;;;;8.43;2.15;;;;;;;;;;5006420;28;20071;-64
2023/06/13 05:12:08;;;;;;;8.52;2.40;;;;;;;;;;5019174;28;20277;-64
2023/06/13 05:14:35;;;;;;;9.20;2.58;;;;;;;;;;5006563;28;20455;-64
2023/06/13 05:17:05;;;;;;;12.45;2.17;;;;;;;;;;5003548;28;20534;-65
2023/06/13 05:19:31;;;;;;;10.23;2.58;;;;;;;;;;5023426;28;20029;-64
2023/06/13 05:22:00;;;;;;;7.85;2.20;;;;;;;;;;5018494;28;20044;-65
2023/06/13 05:24:26;;;;;;;9.50;2.13;;;;;;;;;;5023877;28;20320;-64
2023/06/13 05:26:52;;;;;;;8.35;2.30;;;;;;;;;;5005811;28;20477;-64
2023/06/13 05:29:18;;;;;;;8.63;2.38;;;;;;;;;;5021515;28;20701;-64
2023/06/13 05:31:44;;;;;;;7.65;2.30;;;;;;;;;;5019479;28;20089;-65
2023/06/13 05:34:10;;;;;;;9.20;2.60;;;;;;;;;;5018015;28;20277;-64
2023/06/13 05:36:36;;;;;;;8.68;2.80;;;;;;;;;;5018984;28;20403;-64
2023/06/13 05:39:03;;;;;;;13.52;3.65;;;;;;;;;;5020617;28;20139;-65
2023/06/13 05:41:29;;;;;;;8.20;2.78;;;;;;;;;;5021539;28;20083;-65
2023/06/13 05:43:55;;;;;;;11.93;3.35;;;;;;;;;;5003058;28;20037;-65
2023/06/13 05:46:21;;;;;;;8.27;2.70;;;;;;;;;;5017877;28;20037;-65
2023/06/13 05:48:47;;;;;;;14.43;3.90;;;;;;;;;;5020596;28;20028;-64
2023/06/13 05:51:13;;;;;;;12.50;3.08;;;;;;;;;;5015601;28;23909;-65
2023/06/13 05:53:39;;;;;;;10.43;3.08;;;;;;;;;;5005650;28;20054;-65
2023/06/13 05:56:06;;;;;;;9.73;2.90;;;;;;;;;;5004258;28;20129;-65
2023/06/13 05:58:32;;;;;;;9.85;3.00;;;;;;;;;;4999971;28;20032;-64
2023/06/13 06:01:00;;;;;;;10.00;3.10;;;;;;;;;;5015896;28;20111;-65
2023/06/13 06:03:26;;;;;;;11.43;3.13;;;;;;;;;;5004765;28;22411;-64
2023/06/13 06:05:52;;;;;;;9.95;3.00;;;;;;;;;;5020639;28;20039;-65
2023/06/13 06:08:18;;;;;;;11.23;3.92;;;;;;;;;;5016865;28;20045;-65
2023/06/13 06:10:44;;;;;;;11.88;4.35;;;;;;;;;;5022474;28;20116;-64
2023/06/13 06:13:10;;;;;;;10.27;3.38;;;;;;;;;;5015111;28;20028;-65
2023/06/13 06:15:36;;;;;;;10.70;3.10;;;;;;;;;;5019406;28;20051;-65
2023/06/13 06:18:03;;;;;;;12.77;3.67;;;;;;;;;;5015732;28;20033;-64
2023/06/13 06:20:29;;;;;;;11.25;3.53;;;;;;;;;;5005552;28;20029;-64
2023/06/13 06:22:55;;;;;;;13.10;4.32;;;;;;;;;;5017352;28;20552;-65
2023/06/13 06:25:21;;;;;;;13.05;4.53;;;;;;;;;;5005313;28;20527;-64
2023/06/13 06:27:47;;;;;;;10.75;4.38;;;;;;;;;;5017485;28;20029;-65
2023/06/13 06:30:14;;;;;;;13.38;4.75;;;;;;;;;;5003479;28;20044;-64
2023/06/13 06:32:40;;;;;;;12.10;4.65;;;;;;;;;;5016041;28;20364;-64
2023/06/13 06:35:07;;;;;;;11.10;4.10;;;;;;;;;;4997960;28;20044;-64
2023/06/13 06:37:34;;;;;;;11.73;3.78;;;;;;;;;;5021779;28;20067;-64
2023/06/13 06:40:00;;;;;;;10.60;4.15;;;;;;;;;;5015984;28;20035;-65
2023/06/13 06:42:26;;;;;;;10.82;4.68;;;;;;;;;;5019224;28;20027;-65
2023/06/13 06:44:52;;;;;;;11.95;5.53;;;;;;;;;;5017803;28;20029;-63
2023/06/13 06:47:19;;;;;;;10.35;3.95;;;;;;;;;;5018345;28;20029;-64
2023/06/13 06:49:45;;;;;;;11.35;4.85;;;;;;;;;;5001119;28;20033;-65
2023/06/13 06:52:11;;;;;;;26.70;5.10;;;;;;;;;;5016083;28;20035;-65
2023/06/13 06:54:37;;;;;;;12.63;4.38;;;;;;;;;;5003460;28;20037;-65
2023/06/13 06:57:04;;;;;;;11.18;4.15;;;;;;;;;;4994676;28;20128;-65
2023/06/13 06:59:30;;;;;;;11.40;3.55;;;;;;;;;;5005316;28;20502;-64
2023/06/13 07:01:56;;;;;;;12.05;4.18;;;;;;;;;;4996562;28;20052;-64
2023/06/13 07:04:23;;;;;;;15.00;4.70;;;;;;;;;;5001077;28;20590;-65
2023/06/13 07:06:49;;;;;;;13.50;4.05;;;;;;;;;;4995440;28;20029;-64
2023/06/13 07:09:16;;;;;;;15.38;3.75;;;;;;;;;;4997133;28;20144;-65
2023/06/13 07:11:42;;;;;;;12.52;3.30;;;;;;;;;;4999769;28;20018;-65
2023/06/13 07:14:08;;;;;;;12.23;3.90;;;;;;;;;;4998806;28;20487;-65
2023/06/13 07:16:34;;;;;;;14.68;3.80;;;;;;;;;;4998531;28;20338;-64
2023/06/13 07:19:00;;;;;;;15.73;3.85;;;;;;;;;;4998309;28;20475;-65
2023/06/13 07:21:27;;;;;;;12.07;3.30;;;;;;;;;;5005989;28;20471;-65
2023/06/13 07:23:53;;;;;;;11.63;3.40;;;;;;;;;;5003855;28;20052;-65
2023/06/13 07:26:19;;;;;;;10.15;3.15;;;;;;;;;;5003032;28;20120;-65
2023/06/13 07:28:45;;;;;;;11.95;3.40;;;;;;;;;;5004149;28;20061;-65
2023/06/13 07:31:11;;;;;;;10.07;2.95;;;;;;;;;;5000507;28;20044;-65
2023/06/13 07:33:37;;;;;;;11.77;3.25;;;;;;;;;;4998650;28;20037;-65
2023/06/13 07:36:04;;;;;;;9.63;2.72;;;;;;;;;;4999116;28;20797;-64
2023/06/13 07:38:30;;;;;;;9.20;2.88;;;;;;;;;;5003735;28;20031;-64
2023/06/13 07:40:56;;;;;;;7.43;2.67;;;;;;;;;;4999989;28;20112;-65
2023/06/13 07:43:22;;;;;;;9.13;2.65;;;;;;;;;;4982184;28;20615;-65
2023/06/13 07:45:48;;;;;;;11.70;3.08;;;;;;;;;;5002172;28;20049;-64
2023/06/13 07:48:15;;;;;;;9.70;3.10;;;;;;;;;;4997281;28;20037;-65
2023/06/13 07:50:42;;;;;;;12.20;3.10;;;;;;;;;;5003225;28;20059;-65
2023/06/13 07:53:08;;;;;;;8.80;2.80;;;;;;;;;;5004093;28;20030;-64
2023/06/13 07:55:34;;;;;;;8.27;2.50;;;;;;;;;;5007127;28;20428;-67
2023/06/13 07:58:00;;;;;;;7.57;2.58;;;;;;;;;;5000157;28;20204;-66
2023/06/13 08:00:27;;;;;;;10.32;2.90;;;;;;;;;;4998463;28;20151;-65
2023/06/13 08:02:53;;;;;;;12.30;2.60;;;;;;;;;;4986763;28;20548;-64
2023/06/13 08:05:19;;;;;;;7.63;2.30;;;;;;;;;;4978805;28;20048;-65
2023/06/13 08:07:45;;;;;;;8.80;2.45;;;;;;;;;;4980483;28;20077;-65
2023/06/13 08:10:11;;;;;;;10.30;2.50;;;;;;;;;;4976749;28;20494;-64
2023/06/13 08:12:39;;;;;;;8.10;2.47;;;;;;;;;;4980048;28;20041;-65
2023/06/13 08:15:06;;;;;;;9.88;2.70;;;;;;;;;;4975954;28;20463;-65
2023/06/13 08:17:32;;;;;;;7.70;2.13;;;;;;;;;;4978515;28;20172;-66
2023/06/13 08:19:58;;;;;;;7.65;2.58;;;;;;;;;;4975670;28;20034;-65
2023/06/13 08:22:27;;;;;;;9.55;2.60;;;;;;;;;;4977817;28;20034;-65
2023/06/13 08:24:53;;;;;;;7.72;2.35;;;;;;;;;;4971641;28;20141;-65
2023/06/13 08:27:19;;;;;;;9.27;2.60;;;;;;;;;;4979359;28;20262;-66
2023/06/13 08:29:45;;;;;;;8.43;2.28;;;;;;;;;;4978755;28;20030;-65
2023/06/13 08:32:11;;;;;;;10.55;2.53;;;;;;;;;;4973864;28;20034;-66
2023/06/13 08:34:38;;;;;;;8.40;2.60;;;;;;;;;;4979355;28;20133;-68
2023/06/13 08:37:04;;;;;;;9.65;2.67;;;;;;;;;;4977796;28;20189;-65
2023/06/13 08:39:30;;;;;;;8.23;2.22;;;;;;;;;;4979010;28;20026;-66
2023/06/13 08:41:56;;;;;;;8.65;2.28;;;;;;;;;;4973741;28;20084;-66
2023/06/13 08:44:24;;;;;;;8.35;2.67;;;;;;;;;;4979586;28;20420;-65
2023/06/13 08:46:50;;;;;;;8.23;2.17;;;;;;;;;;4975692;28;22245;-65
2023/06/13 08:49:16;;;;;;;8.65;2.35;;;;;;;;;;4978157;28;20128;-65
2023/06/13 08:51:43;;;;;;;9.15;2.28;;;;;;;;;;4976282;28;20025;-65
2023/06/13 08:54:09;;;;;;;9.20;2.20;;;;;;;;;;4976589;28;20831;-65
2023/06/13 08:56:38;;;;;;;8.20;2.50;;;;;;;;;;4979104;28;20817;-65
2023/06/13 08:59:04;;;;;;;9.15;2.53;;;;;;;;;;4977043;28;20037;-65
2023/06/13 09:01:31;;;;;;;7.18;2.17;;;;;;;;;;4980603;28;20165;-64
2023/06/13 09:03:57;;;;;;;9.40;2.75;;;;;;;;;;5000537;28;20041;-64
2023/06/13 09:06:23;;;;;;;10.57;2.97;;;;;;;;;;5000608;28;20034;-65
2023/06/13 09:08:50;;;;;;;9.57;2.50;;;;;;;;;;5006383;28;20044;-65
2023/06/13 09:11:17;;;;;;;10.02;2.63;;;;;;;;;;4995842;28;20438;-65
2023/06/13 09:13:44;;;;;;;7.40;2.25;;;;;;;;;;5002795;28;20477;-65
2023/06/13 09:16:10;;;;;;;9.13;2.40;;;;;;;;;;4999686;28;20144;-65
2023/06/13 09:18:39;;;;;;;9.77;2.35;;;;;;;;;;5000540;28;20430;-65
2023/06/13 09:21:05;;;;;;;8.35;2.30;;;;;;;;;;4998260;28;20029;-65
2023/06/13 09:23:32;;;;;;;7.22;2.28;;;;;;;;;;5001658;28;20503;-66
2023/06/13 09:26:00;;;;;;;9.00;2.38;;;;;;;;;;5000848;28;20029;-64
2023/06/13 09:28:30;;;;;;;8.15;2.50;;;;;;;;;;5000837;28;20294;-67
2023/06/13 09:30:59;;;;;;;8.65;2.60;;;;;;;;;;4998726;28;20359;-66
2023/06/13 09:33:25;;;;;;;11.02;2.72;;;;;;;;;;5002796;28;20060;-66
2023/06/13 09:35:52;;;;;;;9.30;2.35;;;;;;;;;;5004774;28;20573;-66
2023/06/13 09:38:23;;;;;;;8.45;2.50;;;;;;;;;;5002561;28;20036;-67
2023/06/13 09:40:49;;;;;;;7.13;2.40;;;;;;;;;;5002263;28;20022;-66
2023/06/13 09:43:15;;;;;;;8.95;2.60;;;;;;;;;;4998524;28;20057;-64
2023/06/13 09:45:43;;;;;;;9.18;2.90;;;;;;;;;;5001616;28;20551;-66
2023/06/13 09:48:11;;;;;;;8.13;2.55;;;;;;;;;;4999052;28;23016;-66
2023/06/13 09:50:40;;;;;;;9.32;2.72;;;;;;;;;;5003720;28;20162;-66
2023/06/13 09:53:07;;;;;;;11.27;2.78;;;;;;;;;;4998303;28;20029;-67
2023/06/13 09:55:33;;;;;;;8.25;2.65;;;;;;;;;;5004062;28;20269;-68
2023/06/13 09:58:01;;;;;;;7.53;2.42;;;;;;;;;;5000985;28;20588;-66
2023/06/13 10:00:28;;;;;;;7.80;2.58;;;;;;;;;;4999803;28;20425;-66
2023/06/13 10:02:54;;;;;;;11.13;3.17;;;;;;;;;;5016897;28;20337;-67
2023/06/13 10:05:21;;;;;;;10.68;2.88;;;;;;;;;;5023403;28;20028;-66
2023/06/13 10:07:47;;;;;;;8.27;2.25;;;;;;;;;;5021429;28;20044;-66
2023/06/13 10:10:13;;;;;;;13.20;2.95;;;;;;;;;;5019349;28;20567;-67
2023/06/13 10:12:45;;;;;;;14.15;3.28;;;;;;;;;;5020465;28;20024;-67
2023/06/13 10:15:14;;;;;;;11.07;3.20;;;;;;;;;;5015107;28;20156;-66
2023/06/13 10:17:41;;;;;;;11.63;3.20;;;;;;;;;;5023456;28;20533;-66
2023/06/13 10:20:10;;;;;;;11.88;3.00;;;;;;;;;;5017850;28;20036;-66
2023/06/13 10:22:40;;;;;;;11.45;2.88;;;;;;;;;;5002982;28;20039;-67
2023/06/13 10:25:11;;;;;;;9.23;3.03;;;;;;;;;;5019604;28;20036;-66
2023/06/13 10:27:38;;;;;;;11.98;3.00;;;;;;;;;;5006504;28;20040;-66
2023/06/13 10:30:08;;;;;;;10.38;3.03;;;;;;;;;;5019578;28;20025;-66
2023/06/13 10:32:53;;;;;;;9.20;2.47;;;;;;;;;;5022818;28;20529;-67
2023/06/13 10:35:22;;;;;;;12.48;2.95;;;;;;;;;;5023292;28;20022;-66
2023/06/13 10:38:07;;;;;;;9.10;2.63;;;;;;;;;;5020967;28;20056;-66
2023/06/13 10:40:39;;;;;;;9.67;2.57;;;;;;;;;;5020500;28;20112;-66
2023/06/13 10:43:15;;;;;;;11.88;3.10;;;;;;;;;;5018809;28;20610;-66
2023/06/13 10:45:43;;;;;;;14.25;3.50;;;;;;;;;;5021446;28;20391;-66
2023/06/13 10:48:10;;;;;;;10.95;3.03;;;;;;;;;;5018347;28;20037;-67
2023/06/13 10:50:40;;;;;;;9.80;3.00;;;;;;;;;;5020250;28;20383;-67
2023/06/13 10:53:09;;;;;;;13.40;3.08;;;;;;;;;;5016587;28;20032;-67
2023/06/13 10:55:37;;;;;;;10.75;2.60;;;;;;;;;;5022373;28;20040;-66
2023/06/13 10:58:10;;;;;;;11.35;3.20;;;;;;;;;;5014890;28;20385;-66
2023/06/13 11:00:39;;;;;;;12.25;3.25;;;;;;;;;;5001500;28;20039;-66
2023/06/13 11:03:10;;;;;;;10.85;2.63;;;;;;;;;;5018473;28;20052;-67
2023/06/13 11:05:49;;;;;;;10.77;2.60;;;;;;;;;;5021369;28;20056;-68
2023/06/13 11:08:16;;;;;;;8.73;2.70;;;;;;;;;;5017265;28;20199;-67
2023/06/13 11:10:46;;;;;;;12.77;2.80;;;;;;;;;;5022273;28;20479;-67
2023/06/13 11:13:21;;;;;;;10.13;2.78;;;;;;;;;;5016142;28;20116;-67
2023/06/13 11:15:48;;;;;;;11.27;2.85;;;;;;;;;;5006716;28;20518;-67
2023/06/13 11:18:14;;;;;;;10.35;2.67;;;;;;;;;;5016340;28;20409;-66
2023/06/13 11:21:07;;;;;;;10.57;2.78;;;;;;;;;;5002248;28;20128;-67
2023/06/13 11:23:33;;;;;;;12.07;2.60;;;;;;;;;;5001248;28;20036;-67
2023/06/13 11:25:59;;;;;;;8.40;2.40;;;;;;;;;;4999386;28;20584;-66
2023/06/13 11:28:25;;;;;;;10.07;2.83;;;;;;;;;;5019268;28;20033;-67
2023/06/13 11:30:52;;;;;;;8.88;2.42;;;;;;;;;;5019076;28;20030;-67
2023/06/13 11:33:19;;;;;;;11.30;2.40;;;;;;;;;;5019693;28;20029;-67
2023/06/13 11:35:51;;;;;;;9.25;2.45;;;;;;;;;;5002989;28;20056;-66
2023/06/13 11:38:22;;;;;;;10.63;2.38;;;;;;;;;;5016643;28;20520;-66
2023/06/13 11:40:52;;;;;;;11.50;2.50;;;;;;;;;;5001295;28;20080;-67
2023/06/13 11:43:18;;;;;;;10.35;2.60;;;;;;;;;;5013959;28;20206;-66
2023/06/13 11:45:45;;;;;;;9.68;2.47;;;;;;;;;;5023201;28;20036;-67
2023/06/13 11:48:12;;;;;;;9.20;2.60;;;;;;;;;;5017860;28;20052;-65
2023/06/13 11:50:39;;;;;;;9.75;2.50;;;;;;;;;;5003427;28;20033;-66
2023/06/13 11:53:09;;;;;;;8.60;2.40;;;;;;;;;;5014581;28;20138;-66
2023/06/13 11:55:35;;;;;;;9.18;2.38;;;;;;;;;;5022613;28;20075;-66
2023/06/13 11:58:02;;;;;;;9.30;2.60;;;;;;;;;;5019247;28;20034;-66
2023/06/13 12:00:28;;;;;;;11.93;2.70;;;;;;;;;;5019663;28;20376;-66
2023/06/13 12:02:55;;;;;;;12.88;2.88;;;;;;;;;;5020222;28;20510;-66
2023/06/13 12:05:22;;;;;;;10.25;2.60;;;;;;;;;;5021073;28;20388;-67
2023/06/13 12:07:49;;;;;;;10.38;2.83;;;;;;;;;;5024751;28;20262;-66
2023/06/13 12:10:15;;;;;;;9.80;2.47;;;;;;;;;;5005762;28;20698;-67
2023/06/13 12:12:42;;;;;;;11.10;2.60;;;;;;;;;;5021598;28;20025;-67
2023/06/13 12:15:13;;;;;;;8.93;2.67;;;;;;;;;;5021035;28;20021;-66
2023/06/13 12:18:02;;;;;;;12.63;2.90;;;;;;;;;;5026279;28;20628;-66
2023/06/13 12:20:28;;;;;;;8.88;2.47;;;;;;;;;;5026290;28;20043;-67
2023/06/13 12:22:56;;;;;;;7.53;2.30;;;;;;;;;;5018335;28;20492;-67
2023/06/13 12:25:22;;;;;;;9.32;2.67;;;;;;;;;;5023204;28;20025;-68
2023/06/13 12:27:51;;;;;;;11.27;2.95;;;;;;;;;;5024660;28;20037;-66
2023/06/13 12:30:17;;;;;;;10.38;3.03;;;;;;;;;;5003227;28;20469;-66
2023/06/13 12:32:44;;;;;;;10.23;2.88;;;;;;;;;;5023356;28;20032;-66
2023/06/13 12:35:11;;;;;;;9.13;2.50;;;;;;;;;;5021831;28;20517;-69
2023/06/13 12:37:38;;;;;;;9.57;2.78;;;;;;;;;;5004147;28;20032;-67
2023/06/13 12:40:12;;;;;;;11.90;3.20;;;;;;;;;;5020750;28;20044;-67
2023/06/13 12:42:42;;;;;;;15.65;2.92;;;;;;;;;;5022995;28;20029;-64
2023/06/13 12:45:09;;;;;;;11.38;2.90;;;;;;;;;;5019636;28;20382;-66
2023/06/13 12:47:36;;;;;;;12.10;3.20;;;;;;;;;;5010001;28;20668;-67
2023/06/13 12:50:11;;;;;;;11.20;3.17;;;;;;;;;;5021281;28;20374;-67
2023/06/13 12:52:38;;;;;;;12.20;3.45;;;;;;;;;;5023479;28;20104;-66
2023/06/13 12:55:04;;;;;;;10.52;2.85;;;;;;;;;;5021290;28;20114;-67
2023/06/13 12:57:31;;;;;;;10.77;2.92;;;;;;;;;;5025772;28;20519;-66
2023/06/13 12:59:57;;;;;;;11.52;3.22;;;;;;;;;;5020686;28;20203;-66
2023/06/13 13:02:24;;;;;;;10.32;3.00;;;;;;;;;;5025034;28;20052;-66
2023/06/13 13:05:00;;;;;;;10.73;2.78;;;;;;;;;;5021110;28;20032;-67
2023/06/13 13:07:28;;;;;;;11.13;3.00;;;;;;;;;;5022027;28;20060;-67
2023/06/13 13:09:55;;;;;;;9.93;2.78;;;;;;;;;;5022094;28;20392;-67
2023/06/13 13:12:21;;;;;;;10.43;2.63;;;;;;;;;;5023123;28;20356;-66
2023/06/13 13:14:47;;;;;;;9.60;2.42;;;;;;;;;;5003681;28;20026;-67
2023/06/13 13:17:14;;;;;;;9.00;2.72;;;;;;;;;;5000926;28;21857;-66
2023/06/13 13:19:40;;;;;;;9.88;2.67;;;;;;;;;;5002663;28;20032;-66
2023/06/13 13:22:06;;;;;;;9.05;2.58;;;;;;;;;;5017568;28;20059;-66
2023/06/13 13:24:33;;;;;;;9.85;2.55;;;;;;;;;;5005794;28;20025;-66
2023/06/13 13:26:59;;;;;;;8.95;2.83;;;;;;;;;;5001672;28;20056;-67
2023/06/13 13:29:25;;;;;;;8.90;2.22;;;;;;;;;;5019917;28;20028;-67
2023/06/13 13:31:52;;;;;;;10.63;2.70;;;;;;;;;;5020310;28;20394;-68
2023/06/13 13:34:18;;;;;;;9.77;2.60;;;;;;;;;;5016745;28;20036;-66
2023/06/13 13:36:44;;;;;;;9.32;2.60;;;;;;;;;;5022971;28;20044;-67
2023/06/13 13:39:12;;;;;;;9.85;2.50;;;;;;;;;;5015892;28;20036;-67
2023/06/13 13:41:38;;;;;;;10.85;2.60;;;;;;;;;;5021857;28;20036;-67
2023/06/13 13:44:05;;;;;;;8.45;2.22;;;;;;;;;;5011100;28;20442;-67
2023/06/13 13:46:31;;;;;;;9.13;2.28;;;;;;;;;;5017248;28;20175;-67
2023/06/13 13:48:57;;;;;;;10.52;2.28;;;;;;;;;;5016158;28;20130;-66
2023/06/13 13:51:25;;;;;;;7.10;2.25;;;;;;;;;;5022937;28;20029;-67
2023/06/13 13:53:52;;;;;;;12.50;2.47;;;;;;;;;;5019720;28;20028;-65
2023/06/13 13:56:18;;;;;;;10.07;2.72;;;;;;;;;;5013915;28;20039;-68
2023/06/13 13:58:44;;;;;;;10.88;3.00;;;;;;;;;;5016362;28;20034;-66
2023/06/13 14:01:10;;;;;;;9.35;2.65;;;;;;;;;;5013145;28;20589;-66
2023/06/13 14:03:36;;;;;;;8.68;2.40;;;;;;;;;;5020546;28;20414;-66
2023/06/13 14:06:03;;;;;;;8.25;2.50;;;;;;;;;;5016897;28;20040;-67
2023/06/13 14:08:29;;;;;;;9.20;2.60;;;;;;;;;;5020090;28;20438;-66
2023/06/13 14:10:56;;;;;;;8.50;2.40;;;;;;;;;;5017860;28;20037;-67
2023/06/13 14:13:22;;;;;;;7.97;2.40;;;;;;;;;;5018591;28;20033;-66
2023/06/13 14:15:48;;;;;;;8.80;2.53;;;;;;;;;;5001571;28;20499;-67
2023/06/13 14:18:15;;;;;;;9.52;2.47;;;;;;;;;;5002687;28;20033;-67
2023/06/13 14:20:42;;;;;;;10.77;3.03;;;;;;;;;;5017801;28;20120;-67
2023/06/13 14:23:16;;;;;;;8.55;2.50;;;;;;;;;;5013814;28;20024;-66
2023/06/13 14:25:42;;;;;;;8.95;2.30;;;;;;;;;;5000522;28;20365;-66
2023/06/13 14:28:08;;;;;;;9.25;2.40;;;;;;;;;;5000456;28;20423;-67
2023/06/13 14:30:35;;;;;;;9.27;2.28;;;;;;;;;;5018210;28;20146;-67
2023/06/13 14:33:01;;;;;;;10.02;2.55;;;;;;;;;;5015073;28;20025;-67
2023/06/13 14:35:31;;;;;;;9.27;2.38;;;;;;;;;;5020554;28;21279;-66